sensor_id;sensor_type;location;lat;lon;timestamp;temperature;humidity
12384;DHT22;6256;63.808;20.336;2023-09-08T00:01:18;10.30;99.90
12384;DHT22;6256;63.808;20.336;2023-09-08T00:03:45;10.30;99.90
12384;DHT22;6256;63.808;20.336;2023-09-08T00:06:11;10.30;99.90
12384;DHT22;6256;63.808;20.336;2023-09-08T00:08:36;10.40;99.90
12384;DHT22;6256;63.808;20.336;2023-09-08T00:11:02;10.40;99.90
12384;DHT22;6256;63.808;20.336;2023-09-08T00:13:31;10.40;99.90
12384;DHT22;6256;63.808;20.336;2023-09-08T00:15:56;10.40;99.90
12384;DHT22;6256;63.808;20.336;2023-09-08T00:18:22;10.40;99.90
12384;DHT22;6256;63.808;20.336;2023-09-08T00:20:48;10.40;99.90
12384;DHT22;6256;63.808;20.336;2023-09-08T00:23:14;10.50;99.90
12384;DHT22;6256;63.808;20.336;2023-09-08T00:25:40;10.50;99.90
12384;DHT22;6256;63.808;20.336;2023-09-08T00:28:06;10.50;99.90
12384;DHT22;6256;63.808;20.336;2023-09-08T00:30:32;10.50;99.90
12384;DHT22;6256;63.808;20.336;2023-09-08T00:32:57;10.50;99.90
12384;DHT22;6256;63.808;20.336;2023-09-08T00:35:23;10.50;99.90
12384;DHT22;6256;63.808;20.336;2023-09-08T00:37:49;10.50;99.90
12384;DHT22;6256;63.808;20.336;2023-09-08T00:40:14;10.60;99.90
12384;DHT22;6256;63.808;20.336;2023-09-08T00:42:40;10.60;99.90
12384;DHT22;6256;63.808;20.336;2023-09-08T00:45:06;10.60;99.90
12384;DHT22;6256;63.808;20.336;2023-09-08T00:47:33;10.60;99.90
12384;DHT22;6256;63.808;20.336;2023-09-08T00:50:00;10.70;99.90
12384;DHT22;6256;63.808;20.336;2023-09-08T00:52:26;10.70;99.90
12384;DHT22;6256;63.808;20.336;2023-09-08T00:54:56;10.70;99.90
12384;DHT22;6256;63.808;20.336;2023-09-08T00:57:22;10.60;99.90
12384;DHT22;6256;63.808;20.336;2023-09-08T00:59:48;10.70;99.90
12384;DHT22;6256;63.808;20.336;2023-09-08T01:02:14;10.70;99.90
12384;DHT22;6256;63.808;20.336;2023-09-08T01:04:40;10.80;99.90
12384;DHT22;6256;63.808;20.336;2023-09-08T01:07:08;10.80;99.90
12384;DHT22;6256;63.808;20.336;2023-09-08T01:09:34;10.80;99.90
12384;DHT22;6256;63.808;20.336;2023-09-08T01:12:03;10.90;99.90
12384;DHT22;6256;63.808;20.336;2023-09-08T01:14:31;10.90;99.90
12384;DHT22;6256;63.808;20.336;2023-09-08T01:16:56;10.90;99.90
12384;DHT22;6256;63.808;20.336;2023-09-08T01:19:22;10.90;99.90
12384;DHT22;6256;63.808;20.336;2023-09-08T01:22:11;10.90;99.90
12384;DHT22;6256;63.808;20.336;2023-09-08T01:27:40;11.00;99.90
12384;DHT22;6256;63.808;20.336;2023-09-08T01:30:07;11.00;99.90
12384;DHT22;6256;63.808;20.336;2023-09-08T01:32:34;11.00;99.90
12384;DHT22;6256;63.808;20.336;2023-09-08T01:35:00;11.00;99.90
12384;DHT22;6256;63.808;20.336;2023-09-08T01:37:26;11.00;99.90
12384;DHT22;6256;63.808;20.336;2023-09-08T01:39:52;11.00;99.90
12384;DHT22;6256;63.808;20.336;2023-09-08T01:42:18;11.00;99.90
12384;DHT22;6256;63.808;20.336;2023-09-08T01:44:43;11.10;99.90
12384;DHT22;6256;63.808;20.336;2023-09-08T01:47:09;11.10;99.90
12384;DHT22;6256;63.808;20.336;2023-09-08T01:49:35;11.10;99.90
12384;DHT22;6256;63.808;20.336;2023-09-08T01:52:01;11.20;99.90
12384;DHT22;6256;63.808;20.336;2023-09-08T01:54:26;11.10;99.90
12384;DHT22;6256;63.808;20.336;2023-09-08T01:56:52;11.20;99.90
12384;DHT22;6256;63.808;20.336;2023-09-08T01:59:18;11.20;99.90
12384;DHT22;6256;63.808;20.336;2023-09-08T02:01:43;11.20;99.90
12384;DHT22;6256;63.808;20.336;2023-09-08T02:04:09;11.20;99.90
12384;DHT22;6256;63.808;20.336;2023-09-08T02:06:35;11.10;99.90
12384;DHT22;6256;63.808;20.336;2023-09-08T02:09:01;11.10;99.90
12384;DHT22;6256;63.808;20.336;2023-09-08T02:11:26;11.20;99.90
12384;DHT22;6256;63.808;20.336;2023-09-08T02:13:52;11.10;99.90
12384;DHT22;6256;63.808;20.336;2023-09-08T02:16:18;11.10;99.90
12384;DHT22;6256;63.808;20.336;2023-09-08T02:18:44;11.20;99.90
12384;DHT22;6256;63.808;20.336;2023-09-08T02:21:11;11.10;99.90
12384;DHT22;6256;63.808;20.336;2023-09-08T02:23:37;11.00;99.90
12384;DHT22;6256;63.808;20.336;2023-09-08T02:26:03;11.00;99.90
12384;DHT22;6256;63.808;20.336;2023-09-08T02:28:28;10.90;99.90
12384;DHT22;6256;63.808;20.336;2023-09-08T02:30:54;10.90;99.90
12384;DHT22;6256;63.808;20.336;2023-09-08T02:33:20;10.90;99.90
12384;DHT22;6256;63.808;20.336;2023-09-08T02:35:46;10.90;99.90
12384;DHT22;6256;63.808;20.336;2023-09-08T02:38:11;10.90;99.90
12384;DHT22;6256;63.808;20.336;2023-09-08T02:40:37;10.80;99.90
12384;DHT22;6256;63.808;20.336;2023-09-08T02:43:03;10.80;99.90
12384;DHT22;6256;63.808;20.336;2023-09-08T02:45:29;10.80;99.90
12384;DHT22;6256;63.808;20.336;2023-09-08T02:47:55;10.70;99.90
12384;DHT22;6256;63.808;20.336;2023-09-08T02:50:21;10.70;99.90
12384;DHT22;6256;63.808;20.336;2023-09-08T02:52:47;10.70;99.90
12384;DHT22;6256;63.808;20.336;2023-09-08T02:55:13;10.70;99.90
12384;DHT22;6256;63.808;20.336;2023-09-08T02:57:39;10.70;99.90
12384;DHT22;6256;63.808;20.336;2023-09-08T03:00:06;10.60;99.90
12384;DHT22;6256;63.808;20.336;2023-09-08T03:02:35;10.60;99.90
12384;DHT22;6256;63.808;20.336;2023-09-08T03:05:01;10.70;99.90
12384;DHT22;6256;63.808;20.336;2023-09-08T03:07:27;10.70;99.90
12384;DHT22;6256;63.808;20.336;2023-09-08T03:09:53;10.60;99.90
12384;DHT22;6256;63.808;20.336;2023-09-08T03:12:19;10.60;99.90
12384;DHT22;6256;63.808;20.336;2023-09-08T03:14:44;10.70;99.90
12384;DHT22;6256;63.808;20.336;2023-09-08T03:17:11;10.70;99.90
12384;DHT22;6256;63.808;20.336;2023-09-08T03:19:38;10.60;99.90
12384;DHT22;6256;63.808;20.336;2023-09-08T03:22:04;10.60;99.90
12384;DHT22;6256;63.808;20.336;2023-09-08T03:24:29;10.60;99.90
12384;DHT22;6256;63.808;20.336;2023-09-08T03:26:55;10.60;99.90
12384;DHT22;6256;63.808;20.336;2023-09-08T03:29:22;10.60;99.90
12384;DHT22;6256;63.808;20.336;2023-09-08T03:31:47;10.60;99.90
12384;DHT22;6256;63.808;20.336;2023-09-08T03:34:13;10.50;99.90
12384;DHT22;6256;63.808;20.336;2023-09-08T03:36:39;10.50;99.90
12384;DHT22;6256;63.808;20.336;2023-09-08T03:39:05;10.40;99.90
12384;DHT22;6256;63.808;20.336;2023-09-08T03:41:30;10.40;99.90
12384;DHT22;6256;63.808;20.336;2023-09-08T03:43:56;10.40;99.90
12384;DHT22;6256;63.808;20.336;2023-09-08T03:46:22;10.40;99.90
12384;DHT22;6256;63.808;20.336;2023-09-08T03:48:49;10.30;99.90
12384;DHT22;6256;63.808;20.336;2023-09-08T03:51:18;10.30;99.90
12384;DHT22;6256;63.808;20.336;2023-09-08T03:53:43;10.30;99.90
12384;DHT22;6256;63.808;20.336;2023-09-08T03:56:09;10.30;99.90
12384;DHT22;6256;63.808;20.336;2023-09-08T03:58:35;10.30;99.90
12384;DHT22;6256;63.808;20.336;2023-09-08T04:01:00;10.20;99.90
12384;DHT22;6256;63.808;20.336;2023-09-08T04:03:26;10.30;99.90
12384;DHT22;6256;63.808;20.336;2023-09-08T04:05:52;10.20;99.90
12384;DHT22;6256;63.808;20.336;2023-09-08T04:08:17;10.30;99.90
12384;DHT22;6256;63.808;20.336;2023-09-08T04:10:43;10.30;99.90
12384;DHT22;6256;63.808;20.336;2023-09-08T04:13:09;10.30;99.90
12384;DHT22;6256;63.808;20.336;2023-09-08T04:15:34;10.30;99.90
12384;DHT22;6256;63.808;20.336;2023-09-08T04:18:00;10.30;99.90
12384;DHT22;6256;63.808;20.336;2023-09-08T04:20:26;10.30;99.90
12384;DHT22;6256;63.808;20.336;2023-09-08T04:22:51;10.30;99.90
12384;DHT22;6256;63.808;20.336;2023-09-08T04:25:17;10.30;99.90
12384;DHT22;6256;63.808;20.336;2023-09-08T04:27:43;10.30;99.90
12384;DHT22;6256;63.808;20.336;2023-09-08T04:30:10;10.40;99.90
12384;DHT22;6256;63.808;20.336;2023-09-08T04:32:36;10.30;99.90
12384;DHT22;6256;63.808;20.336;2023-09-08T04:35:03;10.40;99.90
12384;DHT22;6256;63.808;20.336;2023-09-08T04:37:29;10.40;99.90
12384;DHT22;6256;63.808;20.336;2023-09-08T04:39:56;10.40;99.90
12384;DHT22;6256;63.808;20.336;2023-09-08T04:42:22;10.40;99.90
12384;DHT22;6256;63.808;20.336;2023-09-08T04:44:48;10.50;99.90
12384;DHT22;6256;63.808;20.336;2023-09-08T04:47:14;10.60;99.90
12384;DHT22;6256;63.808;20.336;2023-09-08T04:49:40;10.60;99.90
12384;DHT22;6256;63.808;20.336;2023-09-08T04:52:05;10.70;99.90
12384;DHT22;6256;63.808;20.336;2023-09-08T04:54:31;10.70;99.90
12384;DHT22;6256;63.808;20.336;2023-09-08T04:56:57;10.80;99.90
12384;DHT22;6256;63.808;20.336;2023-09-08T04:59:23;10.80;99.90
12384;DHT22;6256;63.808;20.336;2023-09-08T05:01:51;10.90;99.90
12384;DHT22;6256;63.808;20.336;2023-09-08T05:04:17;11.00;99.90
12384;DHT22;6256;63.808;20.336;2023-09-08T05:06:43;11.10;99.90
12384;DHT22;6256;63.808;20.336;2023-09-08T05:09:09;11.20;99.90
12384;DHT22;6256;63.808;20.336;2023-09-08T05:11:35;11.20;99.90
12384;DHT22;6256;63.808;20.336;2023-09-08T05:14:01;11.30;99.90
12384;DHT22;6256;63.808;20.336;2023-09-08T05:16:27;11.40;99.90
12384;DHT22;6256;63.808;20.336;2023-09-08T05:19:05;11.40;99.90
12384;DHT22;6256;63.808;20.336;2023-09-08T05:21:34;11.50;99.90
12384;DHT22;6256;63.808;20.336;2023-09-08T05:24:00;11.60;99.90
12384;DHT22;6256;63.808;20.336;2023-09-08T05:26:25;11.70;99.90
12384;DHT22;6256;63.808;20.336;2023-09-08T05:28:51;11.80;99.90
12384;DHT22;6256;63.808;20.336;2023-09-08T05:31:17;11.80;99.90
12384;DHT22;6256;63.808;20.336;2023-09-08T05:33:42;11.90;99.90
12384;DHT22;6256;63.808;20.336;2023-09-08T05:36:08;12.00;99.90
12384;DHT22;6256;63.808;20.336;2023-09-08T05:41:00;12.30;99.90
12384;DHT22;6256;63.808;20.336;2023-09-08T05:43:26;12.40;99.90
12384;DHT22;6256;63.808;20.336;2023-09-08T05:46:01;12.50;99.90
12384;DHT22;6256;63.808;20.336;2023-09-08T05:48:26;12.60;99.90
12384;DHT22;6256;63.808;20.336;2023-09-08T05:50:52;13.00;99.90
12384;DHT22;6256;63.808;20.336;2023-09-08T05:53:18;13.00;99.90
12384;DHT22;6256;63.808;20.336;2023-09-08T05:55:44;13.10;99.90
12384;DHT22;6256;63.808;20.336;2023-09-08T05:58:09;13.20;99.90
12384;DHT22;6256;63.808;20.336;2023-09-08T06:00:36;13.30;99.90
12384;DHT22;6256;63.808;20.336;2023-09-08T06:03:02;13.40;99.90
12384;DHT22;6256;63.808;20.336;2023-09-08T06:05:28;13.50;99.90
12384;DHT22;6256;63.808;20.336;2023-09-08T06:10:20;13.80;99.90
12384;DHT22;6256;63.808;20.336;2023-09-08T06:12:45;13.90;99.90
12384;DHT22;6256;63.808;20.336;2023-09-08T06:15:11;14.00;99.90
12384;DHT22;6256;63.808;20.336;2023-09-08T06:17:37;14.00;99.90
12384;DHT22;6256;63.808;20.336;2023-09-08T06:20:03;14.20;99.90
12384;DHT22;6256;63.808;20.336;2023-09-08T06:22:29;14.20;99.90
12384;DHT22;6256;63.808;20.336;2023-09-08T06:24:55;14.30;99.90
12384;DHT22;6256;63.808;20.336;2023-09-08T06:27:20;14.50;99.90
12384;DHT22;6256;63.808;20.336;2023-09-08T06:29:46;14.60;99.90
12384;DHT22;6256;63.808;20.336;2023-09-08T06:32:12;14.60;99.90
12384;DHT22;6256;63.808;20.336;2023-09-08T06:37:04;14.80;99.90
12384;DHT22;6256;63.808;20.336;2023-09-08T06:39:29;14.90;99.90
12384;DHT22;6256;63.808;20.336;2023-09-08T06:41:58;15.00;99.90
12384;DHT22;6256;63.808;20.336;2023-09-08T06:44:24;15.10;99.90
12384;DHT22;6256;63.808;20.336;2023-09-08T06:49:16;15.30;99.90
12384;DHT22;6256;63.808;20.336;2023-09-08T06:51:41;15.40;99.90
12384;DHT22;6256;63.808;20.336;2023-09-08T06:54:07;15.50;99.90
12384;DHT22;6256;63.808;20.336;2023-09-08T06:56:35;15.60;99.90
12384;DHT22;6256;63.808;20.336;2023-09-08T06:59:01;15.70;99.90
12384;DHT22;6256;63.808;20.336;2023-09-08T07:01:27;15.80;99.90
12384;DHT22;6256;63.808;20.336;2023-09-08T07:03:53;15.90;99.90
12384;DHT22;6256;63.808;20.336;2023-09-08T07:06:19;16.00;99.90
12384;DHT22;6256;63.808;20.336;2023-09-08T07:08:48;16.10;99.90
12384;DHT22;6256;63.808;20.336;2023-09-08T07:11:15;16.20;99.90
12384;DHT22;6256;63.808;20.336;2023-09-08T07:13:41;16.30;99.90
12384;DHT22;6256;63.808;20.336;2023-09-08T07:16:07;16.30;99.90
12384;DHT22;6256;63.808;20.336;2023-09-08T07:18:33;16.40;99.90
12384;DHT22;6256;63.808;20.336;2023-09-08T07:21:02;16.50;99.90
12384;DHT22;6256;63.808;20.336;2023-09-08T07:23:27;16.60;99.90
12384;DHT22;6256;63.808;20.336;2023-09-08T07:25:53;16.70;99.90
12384;DHT22;6256;63.808;20.336;2023-09-08T07:28:19;16.80;99.90
12384;DHT22;6256;63.808;20.336;2023-09-08T07:30:45;16.90;99.90
12384;DHT22;6256;63.808;20.336;2023-09-08T07:33:10;17.00;99.90
12384;DHT22;6256;63.808;20.336;2023-09-08T07:35:40;17.10;99.90
12384;DHT22;6256;63.808;20.336;2023-09-08T07:38:06;17.20;99.90
12384;DHT22;6256;63.808;20.336;2023-09-08T07:40:33;17.40;99.90
12384;DHT22;6256;63.808;20.336;2023-09-08T07:42:59;17.50;99.90
12384;DHT22;6256;63.808;20.336;2023-09-08T07:47:51;17.70;99.90
12384;DHT22;6256;63.808;20.336;2023-09-08T07:50:21;17.80;99.90
12384;DHT22;6256;63.808;20.336;2023-09-08T07:52:49;17.90;99.90
12384;DHT22;6256;63.808;20.336;2023-09-08T07:55:15;18.00;99.90
12384;DHT22;6256;63.808;20.336;2023-09-08T07:57:42;18.10;99.90
12384;DHT22;6256;63.808;20.336;2023-09-08T08:00:09;18.20;99.90
12384;DHT22;6256;63.808;20.336;2023-09-08T08:05:09;18.30;99.90
12384;DHT22;6256;63.808;20.336;2023-09-08T08:07:35;18.50;99.90
12384;DHT22;6256;63.808;20.336;2023-09-08T08:10:01;18.60;99.90
12384;DHT22;6256;63.808;20.336;2023-09-08T08:12:27;18.70;99.90
12384;DHT22;6256;63.808;20.336;2023-09-08T08:14:53;18.80;99.90
12384;DHT22;6256;63.808;20.336;2023-09-08T08:17:18;18.90;99.90
12384;DHT22;6256;63.808;20.336;2023-09-08T08:19:45;19.00;99.90
12384;DHT22;6256;63.808;20.336;2023-09-08T08:22:11;19.10;99.90
12384;DHT22;6256;63.808;20.336;2023-09-08T08:24:36;19.20;99.90
12384;DHT22;6256;63.808;20.336;2023-09-08T08:27:02;19.10;99.90
12384;DHT22;6256;63.808;20.336;2023-09-08T08:29:29;19.10;99.90
12384;DHT22;6256;63.808;20.336;2023-09-08T08:31:55;19.20;99.90
12384;DHT22;6256;63.808;20.336;2023-09-08T08:34:20;19.30;99.90
12384;DHT22;6256;63.808;20.336;2023-09-08T08:36:46;19.20;99.90
12384;DHT22;6256;63.808;20.336;2023-09-08T08:39:12;19.40;99.90
12384;DHT22;6256;63.808;20.336;2023-09-08T08:41:38;19.50;99.90
12384;DHT22;6256;63.808;20.336;2023-09-08T08:44:08;19.60;99.90
12384;DHT22;6256;63.808;20.336;2023-09-08T08:46:35;19.60;99.90
12384;DHT22;6256;63.808;20.336;2023-09-08T08:49:03;19.70;99.90
12384;DHT22;6256;63.808;20.336;2023-09-08T08:51:31;19.70;99.90
12384;DHT22;6256;63.808;20.336;2023-09-08T08:53:57;19.90;99.90
12384;DHT22;6256;63.808;20.336;2023-09-08T08:56:24;20.00;99.90
12384;DHT22;6256;63.808;20.336;2023-09-08T08:58:52;20.10;99.90
12384;DHT22;6256;63.808;20.336;2023-09-08T09:01:18;20.10;99.90
12384;DHT22;6256;63.808;20.336;2023-09-08T09:03:48;20.10;99.90
12384;DHT22;6256;63.808;20.336;2023-09-08T09:06:14;20.30;99.90
12384;DHT22;6256;63.808;20.336;2023-09-08T09:08:43;20.40;99.90
12384;DHT22;6256;63.808;20.336;2023-09-08T09:11:09;20.20;99.90
12384;DHT22;6256;63.808;20.336;2023-09-08T09:13:35;20.20;99.90
12384;DHT22;6256;63.808;20.336;2023-09-08T09:16:01;20.30;99.90
12384;DHT22;6256;63.808;20.336;2023-09-08T09:18:29;20.40;99.90
12384;DHT22;6256;63.808;20.336;2023-09-08T09:20:58;20.70;99.90
12384;DHT22;6256;63.808;20.336;2023-09-08T09:23:31;20.70;99.90
12384;DHT22;6256;63.808;20.336;2023-09-08T09:25:58;20.80;99.90
12384;DHT22;6256;63.808;20.336;2023-09-08T09:28:24;20.90;99.90
12384;DHT22;6256;63.808;20.336;2023-09-08T09:30:52;20.80;99.90
12384;DHT22;6256;63.808;20.336;2023-09-08T09:33:21;20.70;99.90
12384;DHT22;6256;63.808;20.336;2023-09-08T09:35:51;20.70;99.90
12384;DHT22;6256;63.808;20.336;2023-09-08T09:40:44;20.90;99.90
12384;DHT22;6256;63.808;20.336;2023-09-08T09:43:11;20.90;99.90
12384;DHT22;6256;63.808;20.336;2023-09-08T09:45:38;20.90;99.90
12384;DHT22;6256;63.808;20.336;2023-09-08T09:48:05;21.10;99.90
12384;DHT22;6256;63.808;20.336;2023-09-08T09:50:33;21.30;99.90
12384;DHT22;6256;63.808;20.336;2023-09-08T09:53:00;21.50;99.90
12384;DHT22;6256;63.808;20.336;2023-09-08T09:57:58;21.60;99.90
12384;DHT22;6256;63.808;20.336;2023-09-08T10:00:26;21.70;99.90
12384;DHT22;6256;63.808;20.336;2023-09-08T10:02:56;21.80;99.90
12384;DHT22;6256;63.808;20.336;2023-09-08T10:05:23;22.00;99.90
12384;DHT22;6256;63.808;20.336;2023-09-08T10:07:49;22.00;99.90
12384;DHT22;6256;63.808;20.336;2023-09-08T10:10:16;22.00;99.90
12384;DHT22;6256;63.808;20.336;2023-09-08T10:12:46;21.90;99.90
12384;DHT22;6256;63.808;20.336;2023-09-08T10:15:18;22.00;99.90
12384;DHT22;6256;63.808;20.336;2023-09-08T10:17:44;22.50;99.90
12384;DHT22;6256;63.808;20.336;2023-09-08T10:20:13;22.60;99.90
12384;DHT22;6256;63.808;20.336;2023-09-08T10:22:42;22.80;99.90
12384;DHT22;6256;63.808;20.336;2023-09-08T10:25:09;23.10;99.90
12384;DHT22;6256;63.808;20.336;2023-09-08T10:27:38;22.90;99.90
12384;DHT22;6256;63.808;20.336;2023-09-08T10:30:05;23.10;99.90
12384;DHT22;6256;63.808;20.336;2023-09-08T10:32:33;23.40;99.90
12384;DHT22;6256;63.808;20.336;2023-09-08T10:35:00;23.50;99.90
12384;DHT22;6256;63.808;20.336;2023-09-08T10:37:26;23.70;99.90
12384;DHT22;6256;63.808;20.336;2023-09-08T10:42:23;24.10;99.90
12384;DHT22;6256;63.808;20.336;2023-09-08T10:45:00;24.40;99.90
12384;DHT22;6256;63.808;20.336;2023-09-08T10:47:54;24.00;99.90
12384;DHT22;6256;63.808;20.336;2023-09-08T10:50:35;25.30;99.90
12384;DHT22;6256;63.808;20.336;2023-09-08T10:55:49;25.50;99.90
12384;DHT22;6256;63.808;20.336;2023-09-08T11:00:47;25.90;99.90
12384;DHT22;6256;63.808;20.336;2023-09-08T11:03:14;26.40;99.90
12384;DHT22;6256;63.808;20.336;2023-09-08T11:05:41;26.50;99.90
12384;DHT22;6256;63.808;20.336;2023-09-08T11:08:08;26.40;99.90
12384;DHT22;6256;63.808;20.336;2023-09-08T11:10:34;26.00;99.90
12384;DHT22;6256;63.808;20.336;2023-09-08T11:15:29;27.30;99.90
12384;DHT22;6256;63.808;20.336;2023-09-08T11:20:27;27.60;99.90
12384;DHT22;6256;63.808;20.336;2023-09-08T11:22:55;27.80;99.90
12384;DHT22;6256;63.808;20.336;2023-09-08T11:25:21;28.40;99.90
12384;DHT22;6256;63.808;20.336;2023-09-08T11:27:47;28.60;99.90
12384;DHT22;6256;63.808;20.336;2023-09-08T11:30:15;28.30;99.90
12384;DHT22;6256;63.808;20.336;2023-09-08T11:32:41;27.30;99.90
12384;DHT22;6256;63.808;20.336;2023-09-08T11:35:08;27.80;99.90
12384;DHT22;6256;63.808;20.336;2023-09-08T11:37:39;28.10;99.90
12384;DHT22;6256;63.808;20.336;2023-09-08T11:42:43;28.90;98.10
12384;DHT22;6256;63.808;20.336;2023-09-08T11:45:14;29.20;99.90
12384;DHT22;6256;63.808;20.336;2023-09-08T11:47:41;29.40;99.10
12384;DHT22;6256;63.808;20.336;2023-09-08T11:52:34;29.20;98.40
12384;DHT22;6256;63.808;20.336;2023-09-08T11:55:00;28.70;99.70
12384;DHT22;6256;63.808;20.336;2023-09-08T11:57:27;29.10;99.50
12384;DHT22;6256;63.808;20.336;2023-09-08T11:59:53;28.90;98.80
12384;DHT22;6256;63.808;20.336;2023-09-08T12:02:19;28.30;98.70
12384;DHT22;6256;63.808;20.336;2023-09-08T12:04:45;28.30;98.90
12384;DHT22;6256;63.808;20.336;2023-09-08T12:07:14;28.50;98.90
12384;DHT22;6256;63.808;20.336;2023-09-08T12:09:45;28.50;98.80
12384;DHT22;6256;63.808;20.336;2023-09-08T12:12:12;28.30;98.40
12384;DHT22;6256;63.808;20.336;2023-09-08T12:14:42;28.10;99.60
12384;DHT22;6256;63.808;20.336;2023-09-08T12:17:08;27.70;99.40
12384;DHT22;6256;63.808;20.336;2023-09-08T12:19:34;27.30;99.50
12384;DHT22;6256;63.808;20.336;2023-09-08T12:22:04;26.90;99.90
12384;DHT22;6256;63.808;20.336;2023-09-08T12:24:58;26.80;99.90
12384;DHT22;6256;63.808;20.336;2023-09-08T12:27:25;26.20;99.90
12384;DHT22;6256;63.808;20.336;2023-09-08T12:29:58;25.80;99.90
12384;DHT22;6256;63.808;20.336;2023-09-08T12:32:26;25.60;99.90
12384;DHT22;6256;63.808;20.336;2023-09-08T12:34:54;25.50;99.90
12384;DHT22;6256;63.808;20.336;2023-09-08T12:37:24;25.20;99.90
12384;DHT22;6256;63.808;20.336;2023-09-08T12:39:53;25.40;99.90
12384;DHT22;6256;63.808;20.336;2023-09-08T12:42:19;25.40;99.90
12384;DHT22;6256;63.808;20.336;2023-09-08T12:44:45;25.40;99.90
12384;DHT22;6256;63.808;20.336;2023-09-08T12:47:11;25.40;99.90
12384;DHT22;6256;63.808;20.336;2023-09-08T12:49:40;25.20;99.90
12384;DHT22;6256;63.808;20.336;2023-09-08T12:52:06;25.20;99.90
12384;DHT22;6256;63.808;20.336;2023-09-08T12:54:32;25.10;99.90
12384;DHT22;6256;63.808;20.336;2023-09-08T12:56:57;25.40;99.90
12384;DHT22;6256;63.808;20.336;2023-09-08T12:59:23;25.50;99.90
12384;DHT22;6256;63.808;20.336;2023-09-08T13:01:49;25.60;99.90
12384;DHT22;6256;63.808;20.336;2023-09-08T13:04:15;25.40;99.90
12384;DHT22;6256;63.808;20.336;2023-09-08T13:06:40;25.80;99.90
12384;DHT22;6256;63.808;20.336;2023-09-08T13:09:06;26.40;99.90
12384;DHT22;6256;63.808;20.336;2023-09-08T13:11:33;26.90;99.90
12384;DHT22;6256;63.808;20.336;2023-09-08T13:13:59;26.90;99.90
12384;DHT22;6256;63.808;20.336;2023-09-08T13:16:25;26.90;99.90
12384;DHT22;6256;63.808;20.336;2023-09-08T13:18:50;27.20;99.90
12384;DHT22;6256;63.808;20.336;2023-09-08T13:21:16;27.40;99.90
12384;DHT22;6256;63.808;20.336;2023-09-08T13:23:42;27.20;99.90
12384;DHT22;6256;63.808;20.336;2023-09-08T13:26:08;27.70;99.90
12384;DHT22;6256;63.808;20.336;2023-09-08T13:28:33;27.10;99.90
12384;DHT22;6256;63.808;20.336;2023-09-08T13:30:59;26.70;99.90
12384;DHT22;6256;63.808;20.336;2023-09-08T13:33:25;26.80;99.90
12384;DHT22;6256;63.808;20.336;2023-09-08T13:35:51;27.20;99.90
12384;DHT22;6256;63.808;20.336;2023-09-08T13:38:18;27.70;99.90
12384;DHT22;6256;63.808;20.336;2023-09-08T13:40:43;28.00;99.90
12384;DHT22;6256;63.808;20.336;2023-09-08T13:43:09;28.20;99.30
12384;DHT22;6256;63.808;20.336;2023-09-08T13:45:36;28.20;98.70
12384;DHT22;6256;63.808;20.336;2023-09-08T13:48:02;28.50;98.90
12384;DHT22;6256;63.808;20.336;2023-09-08T13:50:29;28.10;99.00
12384;DHT22;6256;63.808;20.336;2023-09-08T13:52:55;27.60;98.10
12384;DHT22;6256;63.808;20.336;2023-09-08T13:55:21;27.50;98.70
12384;DHT22;6256;63.808;20.336;2023-09-08T13:57:49;27.20;98.70
12384;DHT22;6256;63.808;20.336;2023-09-08T14:00:19;26.80;99.70
12384;DHT22;6256;63.808;20.336;2023-09-08T14:02:45;26.30;99.90
12384;DHT22;6256;63.808;20.336;2023-09-08T14:05:10;25.80;99.90
12384;DHT22;6256;63.808;20.336;2023-09-08T14:07:36;25.50;99.90
12384;DHT22;6256;63.808;20.336;2023-09-08T14:10:02;25.50;99.90
12384;DHT22;6256;63.808;20.336;2023-09-08T14:12:33;25.60;99.90
12384;DHT22;6256;63.808;20.336;2023-09-08T14:17:25;25.10;99.90
12384;DHT22;6256;63.808;20.336;2023-09-08T14:19:50;24.70;99.90
12384;DHT22;6256;63.808;20.336;2023-09-08T14:22:16;24.60;99.90
12384;DHT22;6256;63.808;20.336;2023-09-08T14:24:42;23.80;99.90
12384;DHT22;6256;63.808;20.336;2023-09-08T14:27:07;23.80;99.90
12384;DHT22;6256;63.808;20.336;2023-09-08T14:29:34;23.70;99.90
12384;DHT22;6256;63.808;20.336;2023-09-08T14:32:00;23.70;99.90
12384;DHT22;6256;63.808;20.336;2023-09-08T14:34:25;23.50;99.90
12384;DHT22;6256;63.808;20.336;2023-09-08T14:36:51;23.50;99.90
12384;DHT22;6256;63.808;20.336;2023-09-08T14:39:18;23.20;99.90
12384;DHT22;6256;63.808;20.336;2023-09-08T14:41:49;23.10;99.90
12384;DHT22;6256;63.808;20.336;2023-09-08T14:44:19;23.20;99.90
12384;DHT22;6256;63.808;20.336;2023-09-08T14:46:46;22.90;99.90
12384;DHT22;6256;63.808;20.336;2023-09-08T14:51:40;23.00;99.90
12384;DHT22;6256;63.808;20.336;2023-09-08T14:56:32;22.60;99.90
12384;DHT22;6256;63.808;20.336;2023-09-08T14:59:00;22.40;99.90
12384;DHT22;6256;63.808;20.336;2023-09-08T15:01:26;22.40;99.90
12384;DHT22;6256;63.808;20.336;2023-09-08T15:03:52;22.30;99.90
12384;DHT22;6256;63.808;20.336;2023-09-08T15:06:18;22.10;99.90
12384;DHT22;6256;63.808;20.336;2023-09-08T15:08:43;22.00;99.90
12384;DHT22;6256;63.808;20.336;2023-09-08T15:11:11;21.90;99.90
12384;DHT22;6256;63.808;20.336;2023-09-08T15:13:37;21.70;99.90
12384;DHT22;6256;63.808;20.336;2023-09-08T15:16:03;21.30;99.90
12384;DHT22;6256;63.808;20.336;2023-09-08T15:18:31;21.30;99.90
12384;DHT22;6256;63.808;20.336;2023-09-08T15:20:57;21.10;99.90
12384;DHT22;6256;63.808;20.336;2023-09-08T15:23:23;21.20;99.90
12384;DHT22;6256;63.808;20.336;2023-09-08T15:25:56;21.20;99.90
12384;DHT22;6256;63.808;20.336;2023-09-08T15:28:23;21.20;99.90
12384;DHT22;6256;63.808;20.336;2023-09-08T15:33:20;21.00;99.90
12384;DHT22;6256;63.808;20.336;2023-09-08T15:35:47;20.90;99.90
12384;DHT22;6256;63.808;20.336;2023-09-08T15:38:14;20.90;99.90
12384;DHT22;6256;63.808;20.336;2023-09-08T15:46:01;20.70;99.90
12384;DHT22;6256;63.808;20.336;2023-09-08T15:48:27;20.50;99.90
12384;DHT22;6256;63.808;20.336;2023-09-08T15:50:52;20.40;99.90
12384;DHT22;6256;63.808;20.336;2023-09-08T15:53:18;20.30;99.90
12384;DHT22;6256;63.808;20.336;2023-09-08T15:58:10;20.20;99.90
12384;DHT22;6256;63.808;20.336;2023-09-08T16:00:35;20.10;99.90
12384;DHT22;6256;63.808;20.336;2023-09-08T16:03:01;20.10;99.90
12384;DHT22;6256;63.808;20.336;2023-09-08T16:05:27;19.90;99.90
12384;DHT22;6256;63.808;20.336;2023-09-08T16:07:53;19.90;99.90
12384;DHT22;6256;63.808;20.336;2023-09-08T16:10:18;19.90;99.90
12384;DHT22;6256;63.808;20.336;2023-09-08T16:12:46;20.00;99.90
12384;DHT22;6256;63.808;20.336;2023-09-08T16:15:12;19.80;99.90
12384;DHT22;6256;63.808;20.336;2023-09-08T16:17:38;19.80;99.90
12384;DHT22;6256;63.808;20.336;2023-09-08T16:20:04;19.70;99.90
12384;DHT22;6256;63.808;20.336;2023-09-08T16:22:30;19.60;99.90
12384;DHT22;6256;63.808;20.336;2023-09-08T16:24:56;19.50;99.90